createdAt,value
2022-09-09T00:02:20.896Z,98.79
2022-09-09T00:05:06.099Z,98.85
2022-09-09T00:07:48.849Z,98.81
2022-09-09T00:10:40.568Z,98.79
2022-09-09T00:13:41.633Z,98.66
2022-09-09T00:16:20.848Z,98.69
2022-09-09T00:19:04.839Z,98.98
2022-09-09T00:21:38.654Z,99.10
2022-09-09T00:24:26.493Z,98.93
2022-09-09T00:27:17.450Z,98.86
2022-09-09T00:30:15.098Z,98.92
2022-09-09T00:32:48.793Z,98.72
2022-09-09T00:35:26.738Z,98.92
2022-09-09T00:38:06.836Z,98.70
2022-09-09T00:41:03.753Z,98.65
2022-09-09T00:43:41.293Z,98.66
2022-09-09T00:46:27.686Z,98.54
2022-09-09T00:49:02.218Z,98.73
2022-09-09T00:51:52.668Z,98.83
2022-09-09T00:54:45.679Z,98.61
2022-09-09T00:57:24.533Z,98.65
2022-09-09T01:00:18.937Z,98.54
2022-09-09T01:03:12.584Z,98.70
2022-09-09T01:05:59.623Z,98.21
2022-09-09T01:08:37.378Z,98.13
2022-09-09T01:11:17.548Z,98.09
2022-09-09T01:13:59.908Z,97.89
2022-09-09T01:16:34.073Z,97.92
2022-09-09T01:19:08.504Z,97.69
2022-09-09T01:22:05.087Z,97.61
2022-09-09T01:25:06.579Z,97.63
2022-09-09T01:28:03.142Z,97.44
2022-09-09T01:30:39.621Z,97.71
2022-09-09T01:33:17.814Z,97.69
2022-09-09T01:35:58.049Z,97.48
2022-09-09T01:38:36.225Z,97.50
2022-09-09T01:41:08.408Z,97.63
2022-09-09T01:44:01.069Z,97.55
2022-09-09T01:46:35.388Z,97.68
2022-09-09T01:49:09.354Z,97.45
2022-09-09T01:51:42.580Z,97.47
2022-09-09T01:54:17.560Z,97.32
2022-09-09T01:57:08.090Z,97.39
2022-09-09T02:00:12.709Z,97.44
2022-09-09T02:03:02.121Z,97.48
2022-09-09T02:05:51.161Z,97.50
2022-09-09T02:08:35.265Z,97.75
2022-09-09T02:11:16.654Z,97.66
2022-09-09T02:13:56.631Z,97.42
2022-09-09T02:16:35.913Z,97.31
2022-09-09T02:19:26.371Z,97.43
2022-09-09T02:22:07.114Z,97.25
2022-09-09T02:24:40.901Z,97.32
2022-09-09T02:27:27.600Z,97.41
2022-09-09T02:30:03.022Z,97.29
2022-09-09T02:32:46.113Z,97.25
2022-09-09T02:35:25.219Z,97.39
2022-09-09T02:38:01.011Z,97.26
2022-09-09T02:40:33.342Z,97.27
2022-09-09T02:43:08.374Z,97.18
2022-09-09T02:45:45.375Z,97.09
2022-09-09T02:48:31.443Z,96.98
2022-09-09T02:51:11.643Z,97.25
2022-09-09T02:53:50.320Z,96.99
2022-09-09T02:56:24.643Z,97.05
2022-09-09T02:58:56.702Z,97.01
2022-09-09T03:01:30.027Z,97.06
2022-09-09T03:04:03.557Z,96.88
2022-09-09T03:06:36.537Z,96.79
2022-09-09T03:09:19.233Z,96.67
2022-09-09T03:11:51.353Z,96.52
2022-09-09T03:14:26.197Z,96.39
2022-09-09T03:17:01.759Z,96.16
2022-09-09T03:19:37.160Z,96.35
2022-09-09T03:22:11.133Z,96.25
2022-09-09T03:24:47.684Z,96.41
2022-09-09T03:27:20.559Z,96.50
2022-09-09T03:29:53.012Z,96.59
2022-09-09T03:32:28.837Z,96.42
2022-09-09T03:35:03.232Z,96.42
2022-09-09T03:37:35.730Z,96.33
2022-09-09T03:40:09.542Z,96.30
2022-09-09T03:42:41.532Z,96.32
2022-09-09T03:45:13.387Z,96.26
2022-09-09T03:47:47.068Z,96.22
2022-09-09T03:50:19.819Z,96.29
2022-09-09T03:52:52.952Z,96.23
2022-09-09T03:55:27.538Z,96.36
2022-09-09T03:58:01.320Z,96.31
2022-09-09T04:00:34.683Z,96.49
2022-09-09T04:03:06.923Z,96.61
2022-09-09T04:05:43.217Z,96.52
2022-09-09T04:08:16.297Z,96.35
2022-09-09T04:10:49.388Z,96.05
2022-09-09T04:13:22.522Z,96.20
2022-09-09T04:15:57.357Z,96.15
2022-09-09T04:18:29.406Z,96.07
2022-09-09T04:21:02.356Z,95.87
2022-09-09T04:23:37.069Z,96.00
2022-09-09T04:26:10.333Z,96.06
2022-09-09T04:28:42.933Z,96.05
2022-09-09T04:31:23.817Z,95.77
2022-09-09T04:33:58.797Z,95.65
2022-09-09T04:36:33.217Z,95.61
2022-09-09T04:39:08.592Z,95.58
2022-09-09T04:41:40.535Z,95.62
2022-09-09T04:44:12.969Z,95.28
2022-09-09T04:46:45.610Z,95.36
2022-09-09T04:49:17.618Z,95.13
2022-09-09T04:51:52.815Z,94.77
2022-09-09T04:54:24.714Z,94.75
2022-09-09T04:56:56.732Z,94.55
2022-09-09T04:59:28.693Z,94.35
2022-09-09T05:02:03.140Z,94.16
2022-09-09T05:04:35.249Z,94.10
2022-09-09T05:07:07.882Z,93.60
2022-09-09T05:09:40.159Z,93.83
2022-09-09T05:12:12.662Z,93.48
2022-09-09T05:14:53.163Z,93.63
2022-09-09T05:17:25.345Z,93.35
2022-09-09T05:19:57.940Z,93.18
2022-09-09T05:22:31.585Z,93.21
2022-09-09T05:25:03.718Z,93.07
2022-09-09T05:27:36.171Z,93.32
2022-09-09T05:30:09.094Z,93.08
2022-09-09T05:32:41.187Z,93.08
2022-09-09T05:35:14.270Z,92.91
2022-09-09T05:37:47.054Z,93.01
2022-09-09T05:40:19.703Z,92.83
2022-09-09T05:42:51.752Z,92.52
2022-09-09T05:45:23.712Z,92.42
2022-09-09T05:47:56.007Z,92.27
2022-09-09T05:50:31.625Z,92.32
2022-09-09T05:53:04.865Z,92.17
2022-09-09T05:55:37.330Z,92.23
2022-09-09T05:58:11.043Z,92.16
2022-09-09T06:00:45.014Z,92.00
2022-09-09T06:03:18.047Z,91.80
2022-09-09T06:05:58.438Z,90.82
2022-09-09T06:08:31.141Z,90.99
2022-09-09T06:11:05.086Z,90.74
2022-09-09T06:13:39.831Z,90.81
2022-09-09T06:16:14.212Z,90.37
2022-09-09T06:18:48.261Z,90.34
2022-09-09T06:21:25.159Z,90.13
2022-09-09T06:24:00.851Z,90.12
2022-09-09T06:26:35.401Z,90.01
2022-09-09T06:29:08.993Z,90.13
2022-09-09T06:31:42.359Z,90.11
2022-09-09T06:34:21.740Z,90.39
2022-09-09T06:36:58.677Z,90.61
2022-09-09T06:39:32.312Z,90.51
2022-09-09T06:42:05.048Z,90.40
2022-09-09T06:45:03.325Z,90.60
2022-09-09T06:47:49.196Z,90.62
2022-09-09T06:50:21.854Z,90.74
2022-09-09T06:52:54.772Z,90.87
2022-09-09T06:55:27.345Z,90.72
2022-09-09T06:57:59.376Z,90.47
2022-09-09T07:00:32.493Z,90.58
2022-09-09T07:03:05.284Z,90.58
2022-09-09T07:05:37.179Z,90.29
2022-09-09T07:08:09.747Z,90.19
2022-09-09T07:10:41.683Z,90.01
2022-09-09T07:13:16.641Z,89.84
2022-09-09T07:15:48.588Z,89.87
2022-09-09T07:18:20.917Z,89.59
2022-09-09T07:20:58.113Z,89.05
2022-09-09T07:23:36.022Z,89.27
2022-09-09T07:26:16.710Z,88.84
2022-09-09T07:28:49.334Z,89.11
2022-09-09T07:31:25.049Z,88.56
2022-09-09T07:33:57.860Z,88.60
2022-09-09T07:36:33.518Z,88.05
2022-09-09T07:39:12.038Z,87.87
2022-09-09T07:41:46.789Z,87.61
2022-09-09T07:44:25.822Z,87.20
2022-09-09T07:47:07.833Z,87.08
2022-09-09T07:49:44.409Z,86.83
2022-09-09T07:52:19.618Z,86.91
2022-09-09T07:54:55.215Z,86.34
2022-09-09T07:57:28.600Z,85.86
2022-09-09T08:00:00.534Z,85.97
2022-09-09T08:02:33.536Z,85.92
2022-09-09T08:05:07.157Z,85.58
2022-09-09T08:07:39.700Z,85.38
2022-09-09T08:10:12.003Z,85.30
2022-09-09T08:13:01.419Z,85.42
2022-09-09T08:15:34.996Z,85.29
2022-09-09T08:18:07.352Z,85.04
2022-09-09T08:20:39.882Z,84.93
2022-09-09T08:23:12.025Z,85.01
2022-09-09T08:25:43.910Z,84.68
2022-09-09T08:28:15.879Z,84.40
2022-09-09T08:30:49.128Z,84.05
2022-09-09T08:33:21.294Z,84.02
2022-09-09T08:35:57.081Z,83.24
2022-09-09T08:38:29.526Z,83.30
2022-09-09T08:41:13.129Z,82.65
2022-09-09T08:43:47.489Z,83.15
2022-09-09T08:46:36.251Z,82.10
2022-09-09T08:49:19.982Z,81.51
2022-09-09T08:51:56.242Z,82.12
2022-09-09T08:54:51.082Z,81.71
2022-09-09T08:57:27.836Z,81.13
2022-09-09T09:00:00.580Z,81.20
2022-09-09T09:02:50.418Z,80.18
2022-09-09T09:05:37.193Z,80.26
2022-09-09T09:08:09.199Z,79.98
2022-09-09T09:10:49.914Z,78.41
2022-09-09T09:13:38.333Z,77.97
2022-09-09T09:16:23.367Z,77.51
2022-09-09T09:18:56.297Z,78.15
2022-09-09T09:21:46.598Z,76.81
2022-09-09T09:24:35.990Z,75.47
2022-09-09T09:27:14.985Z,76.18
2022-09-09T09:30:18.470Z,76.55
2022-09-09T09:32:54.816Z,75.26
2022-09-09T09:35:27.312Z,76.38
2022-09-09T09:40:59.021Z,75.57
2022-09-09T09:43:37.875Z,74.44
2022-09-09T09:46:26.716Z,74.42
2022-09-09T09:49:06.448Z,74.74
2022-09-09T09:51:39.390Z,74.54
2022-09-09T09:54:19.483Z,73.82
2022-09-09T09:56:56.923Z,74.60
2022-09-09T09:59:39.170Z,74.39
2022-09-09T10:02:15.260Z,74.52
2022-09-09T10:04:48.470Z,73.95
2022-09-09T10:07:22.641Z,73.55
2022-09-09T10:09:56.453Z,73.17
2022-09-09T10:12:55.772Z,72.70
2022-09-09T10:15:55.011Z,72.44
2022-09-09T10:18:38.216Z,72.67
2022-09-09T10:21:10.178Z,73.41
2022-09-09T10:24:03.973Z,71.75
2022-09-09T10:26:52.136Z,71.03
2022-09-09T10:29:53.639Z,71.12
2022-09-09T10:32:41.947Z,70.41
2022-09-09T10:35:16.574Z,71.55
2022-09-09T10:38:18.998Z,69.90
2022-09-09T10:40:54.341Z,70.39
2022-09-09T10:43:41.185Z,69.27
2022-09-09T10:46:32.015Z,68.67
2022-09-09T10:49:25.600Z,69.33
2022-09-09T10:52:16.502Z,69.50
2022-09-09T10:55:03.326Z,68.35
2022-09-09T10:57:45.278Z,68.20
2022-09-09T11:00:21.623Z,67.47
2022-09-09T11:03:04.059Z,65.90
2022-09-09T11:05:48.316Z,65.06
2022-09-09T11:08:27.579Z,65.47
2022-09-09T11:11:14.855Z,65.79
2022-09-09T11:13:56.996Z,65.49
2022-09-09T11:16:36.138Z,64.74
2022-09-09T11:19:26.894Z,63.82
2022-09-09T11:22:00.443Z,65.06
2022-09-09T11:24:38.352Z,64.00
2022-09-09T11:27:39.659Z,62.35
2022-09-09T11:30:53.724Z,62.46
2022-09-09T11:33:58.196Z,62.27
2022-09-09T11:36:48.156Z,62.96
2022-09-09T11:39:32.316Z,64.19
2022-09-09T11:42:24.890Z,64.20
2022-09-09T11:44:57.740Z,64.99
2022-09-09T11:47:32.150Z,64.78
2022-09-09T11:50:15.928Z,64.47
2022-09-09T11:52:49.375Z,65.12
2022-09-09T11:55:34.071Z,65.51
2022-09-09T11:58:16.205Z,65.68
2022-09-09T12:00:49.949Z,65.35
2022-09-09T12:03:41.067Z,62.51
2022-09-09T12:06:19.390Z,61.88
2022-09-09T12:08:56.374Z,61.99
2022-09-09T12:11:30.082Z,62.79
2022-09-09T12:14:02.013Z,63.03
2022-09-09T12:16:36.236Z,62.94
2022-09-09T12:19:15.697Z,63.75
2022-09-09T12:21:48.236Z,65.51
2022-09-09T12:24:45.619Z,70.34
2022-09-09T12:27:23.944Z,69.14
2022-09-09T12:29:57.239Z,69.27
2022-09-09T12:32:30.081Z,69.44
2022-09-09T12:35:08.265Z,69.16
2022-09-09T12:37:47.557Z,69.21
2022-09-09T12:40:33.343Z,69.26
2022-09-09T12:43:22.686Z,69.28
2022-09-09T12:46:01.937Z,69.58
2022-09-09T12:48:38.736Z,69.13
2022-09-09T12:51:26.069Z,68.58
2022-09-09T12:53:59.559Z,68.57
2022-09-09T12:56:33.604Z,68.21
2022-09-09T12:59:05.466Z,68.83
2022-09-09T13:01:37.477Z,69.05
2022-09-09T13:04:23.375Z,69.60
2022-09-09T13:06:56.529Z,69.66
2022-09-09T13:09:28.506Z,70.14
2022-09-09T13:12:00.412Z,70.44
2022-09-09T13:14:38.376Z,71.26
2022-09-09T13:17:20.829Z,72.14
2022-09-09T13:19:54.085Z,71.85
2022-09-09T13:22:37.267Z,73.06
2022-09-09T13:25:12.843Z,73.21
2022-09-09T13:28:05.594Z,75.39
2022-09-09T13:30:41.149Z,74.88
2022-09-09T13:33:15.940Z,75.94
2022-09-09T13:35:59.974Z,80.33
2022-09-09T13:38:35.254Z,80.72
2022-09-09T13:41:09.613Z,81.37
2022-09-09T13:43:46.541Z,83.52
2022-09-09T13:46:28.549Z,87.08
2022-09-09T13:49:20.996Z,89.16
2022-09-09T13:52:11.164Z,88.76
2022-09-09T13:54:43.605Z,87.14
2022-09-09T13:57:26.298Z,90.15
2022-09-09T14:00:06.462Z,88.49
2022-09-09T14:02:40.222Z,89.39
2022-09-09T14:05:12.601Z,90.30
2022-09-09T14:07:48.254Z,91.56
2022-09-09T14:10:23.265Z,91.94
2022-09-09T14:12:55.371Z,92.63
2022-09-09T14:15:28.142Z,93.21
2022-09-09T14:18:00.452Z,94.02
2022-09-09T14:20:32.973Z,94.01
2022-09-09T14:23:05.159Z,94.26
2022-09-09T14:25:37.329Z,94.50
2022-09-09T14:28:13.580Z,94.40
2022-09-09T14:30:54.581Z,94.68
2022-09-09T14:33:30.120Z,94.75
2022-09-09T14:36:04.077Z,94.57
2022-09-09T14:38:41.137Z,94.46
2022-09-09T14:41:17.880Z,94.64
2022-09-09T14:43:51.364Z,94.90
2022-09-09T14:46:24.336Z,94.28
2022-09-09T14:48:57.255Z,93.63
2022-09-09T14:51:29.508Z,92.81
2022-09-09T14:54:02.992Z,91.98
2022-09-09T14:56:35.641Z,92.50
2022-09-09T14:59:07.758Z,92.22
2022-09-09T15:01:39.660Z,91.87
2022-09-09T15:04:13.516Z,90.97
2022-09-09T15:06:49.127Z,91.02
2022-09-09T15:09:21.241Z,91.10
2022-09-09T15:11:53.249Z,90.86
2022-09-09T15:14:27.112Z,91.00
2022-09-09T15:16:59.293Z,91.05
2022-09-09T15:19:31.398Z,90.67
2022-09-09T15:22:06.226Z,90.03
2022-09-09T15:24:38.358Z,90.48
2022-09-09T15:27:10.243Z,90.70
2022-09-09T15:29:42.828Z,90.83
2022-09-09T15:32:14.875Z,90.64
2022-09-09T15:34:47.205Z,90.54
2022-09-09T15:37:19.184Z,89.93
2022-09-09T15:39:51.329Z,89.81
2022-09-09T15:42:23.520Z,89.08
2022-09-09T15:44:55.858Z,88.58
2022-09-09T15:47:28.610Z,87.71
2022-09-09T15:50:00.675Z,86.77
2022-09-09T15:52:32.908Z,86.23
2022-09-09T15:55:05.585Z,86.12
2022-09-09T15:57:37.834Z,85.28
2022-09-09T16:00:13.488Z,85.38
2022-09-09T16:02:49.385Z,84.91
2022-09-09T16:05:21.957Z,84.54
2022-09-09T16:07:54.205Z,84.16
2022-09-09T16:10:26.225Z,83.98
2022-09-09T16:12:58.233Z,83.77
2022-09-09T16:15:30.943Z,83.21
2022-09-09T16:18:03.192Z,83.21
2022-09-09T16:20:35.776Z,83.12
2022-09-09T16:23:07.766Z,82.93
2022-09-09T16:25:39.691Z,82.83
2022-09-09T16:28:11.862Z,82.42
2022-09-09T16:30:43.784Z,82.51
2022-09-09T16:33:15.756Z,82.51
2022-09-09T16:35:47.867Z,82.43
2022-09-09T16:38:20.055Z,82.25
2022-09-09T16:41:03.793Z,80.95
2022-09-09T16:43:45.494Z,81.44
2022-09-09T16:46:44.760Z,80.61
2022-09-09T16:49:31.101Z,80.81
2022-09-09T16:52:24.591Z,80.71
2022-09-09T16:55:10.673Z,79.80
2022-09-09T16:57:44.354Z,80.09
2022-09-09T17:00:19.628Z,79.94
2022-09-09T17:02:51.651Z,79.64
2022-09-09T17:05:24.208Z,79.44
2022-09-09T17:07:58.514Z,79.50
2022-09-09T17:10:30.578Z,79.19
2022-09-09T17:13:02.975Z,79.32
2022-09-09T17:15:35.307Z,79.51
2022-09-09T17:18:07.817Z,79.47
2022-09-09T17:20:46.857Z,79.58
2022-09-09T17:23:20.643Z,79.87
2022-09-09T17:25:59.785Z,79.96
2022-09-09T17:28:32.226Z,80.23
2022-09-09T17:31:05.933Z,80.65
2022-09-09T17:33:40.444Z,80.82
2022-09-09T17:36:18.579Z,81.11
2022-09-09T17:38:51.050Z,81.11
2022-09-09T17:41:29.054Z,81.78
2022-09-09T17:44:01.534Z,81.52
2022-09-09T17:46:36.037Z,82.05
2022-09-09T17:49:15.868Z,82.41
2022-09-09T17:51:48.457Z,82.40
2022-09-09T17:54:21.465Z,82.54
2022-09-09T17:56:53.791Z,82.94
2022-09-09T17:59:26.573Z,82.77
2022-09-09T18:01:58.722Z,83.09
2022-09-09T18:04:31.197Z,83.16
2022-09-09T18:07:03.490Z,83.45
2022-09-09T18:09:35.545Z,83.41
2022-09-09T18:12:07.851Z,83.82
2022-09-09T18:14:39.950Z,83.82
2022-09-09T18:17:12.697Z,83.80
2022-09-09T18:19:44.709Z,83.98
2022-09-09T18:22:16.834Z,84.31
2022-09-09T18:24:50.380Z,84.51
2022-09-09T18:27:22.471Z,84.85
2022-09-09T18:29:54.573Z,84.86
2022-09-09T18:32:27.840Z,84.92
2022-09-09T18:34:59.823Z,85.29
2022-09-09T18:37:34.113Z,85.38
2022-09-09T18:40:06.972Z,85.67
2022-09-09T18:42:38.946Z,85.68
2022-09-09T18:45:11.104Z,86.04
2022-09-09T18:47:44.843Z,86.22
2022-09-09T18:50:16.946Z,86.18
2022-09-09T18:52:49.401Z,86.51
2022-09-09T18:55:21.681Z,86.66
2022-09-09T18:57:55.039Z,86.71
2022-09-09T19:00:29.332Z,86.99
2022-09-09T19:03:01.439Z,86.87
2022-09-09T19:05:33.736Z,87.02
2022-09-09T19:08:05.767Z,87.10
2022-09-09T19:10:37.684Z,87.40
2022-09-09T19:13:09.845Z,87.38
2022-09-09T19:15:41.827Z,87.46
2022-09-09T19:18:13.812Z,87.42
2022-09-09T19:20:46.313Z,87.63
2022-09-09T19:23:18.263Z,87.81
2022-09-09T19:25:50.499Z,87.82
2022-09-09T19:28:22.420Z,87.99
2022-09-09T19:30:56.698Z,88.37
2022-09-09T19:33:29.001Z,88.50
2022-09-09T19:36:03.192Z,88.54
2022-09-09T19:38:35.577Z,88.64
2022-09-09T19:41:09.907Z,88.76
2022-09-09T19:43:42.686Z,88.71
2022-09-09T19:46:16.321Z,88.90
2022-09-09T19:48:48.506Z,88.87
2022-09-09T19:51:21.826Z,89.12
2022-09-09T19:53:59.086Z,89.52
2022-09-09T19:56:32.829Z,89.49
2022-09-09T19:59:05.627Z,89.75
2022-09-09T20:01:40.893Z,89.76
2022-09-09T20:04:14.881Z,90.00
2022-09-09T20:06:46.920Z,90.06
2022-09-09T20:09:19.482Z,90.27
2022-09-09T20:11:51.328Z,90.31
2022-09-09T20:14:23.375Z,90.50
2022-09-09T20:16:56.145Z,90.36
2022-09-09T20:19:28.015Z,90.59
2022-09-09T20:22:00.384Z,90.51
2022-09-09T20:24:32.554Z,90.63
2022-09-09T20:27:04.496Z,90.72
2022-09-09T20:29:36.624Z,90.65
2022-09-09T20:32:08.619Z,90.76
2022-09-09T20:34:41.707Z,90.76
2022-09-09T20:37:16.840Z,90.47
2022-09-09T20:39:48.790Z,90.25
2022-09-09T20:42:20.669Z,90.56
2022-09-09T20:44:52.743Z,90.27
2022-09-09T20:47:24.533Z,90.10
2022-09-09T20:49:56.528Z,89.96
2022-09-09T20:52:28.371Z,89.84
2022-09-09T20:55:00.281Z,90.13
2022-09-09T20:57:32.109Z,89.86
2022-09-09T21:00:05.219Z,89.55
2022-09-09T21:02:37.127Z,89.42
2022-09-09T21:05:09.522Z,89.48
2022-09-09T21:07:41.623Z,89.44
2022-09-09T21:10:13.977Z,89.41
2022-09-09T21:12:46.208Z,89.44
2022-09-09T21:15:18.121Z,89.27
2022-09-09T21:17:49.950Z,89.09
2022-09-09T21:20:21.993Z,88.90
2022-09-09T21:22:54.461Z,88.79
2022-09-09T21:25:27.159Z,88.63
2022-09-09T21:27:59.145Z,88.30
2022-09-09T21:30:39.316Z,88.30
2022-09-09T21:33:14.025Z,88.20
2022-09-09T21:35:46.685Z,88.16
2022-09-09T21:38:20.932Z,88.04
2022-09-09T21:40:53.834Z,87.99
2022-09-09T21:43:25.703Z,87.79
2022-09-09T21:45:57.780Z,87.72
2022-09-09T21:48:31.555Z,87.65
2022-09-09T21:51:06.595Z,87.48
2022-09-09T21:53:39.559Z,87.36
2022-09-09T21:56:14.161Z,87.36
2022-09-09T21:58:47.452Z,87.26
2022-09-09T22:01:19.922Z,87.30
2022-09-09T22:03:52.249Z,86.98
2022-09-09T22:06:24.009Z,87.02
2022-09-09T22:08:57.261Z,86.80
2022-09-09T22:11:30.580Z,87.02
2022-09-09T22:14:02.386Z,86.74
2022-09-09T22:16:34.576Z,86.97
2022-09-09T22:19:07.777Z,86.85
2022-09-09T22:21:39.600Z,87.19
2022-09-09T22:24:12.590Z,87.17
2022-09-09T22:26:44.406Z,87.27
2022-09-09T22:29:17.462Z,87.22
2022-09-09T22:31:50.052Z,86.89
2022-09-09T22:34:21.926Z,86.69
2022-09-09T22:36:53.886Z,86.50
2022-09-09T22:39:25.776Z,86.22
2022-09-09T22:41:58.645Z,86.20
2022-09-09T22:44:31.837Z,86.33
2022-09-09T22:47:03.749Z,86.66
2022-09-09T22:49:37.130Z,86.80
2022-09-09T22:52:10.411Z,86.89
2022-09-09T22:54:42.519Z,87.18
2022-09-09T22:57:14.269Z,87.04
2022-09-09T22:59:46.929Z,87.16
2022-09-09T23:02:20.646Z,87.52
2022-09-09T23:04:52.948Z,87.51
2022-09-09T23:07:24.837Z,87.47
2022-09-09T23:09:56.690Z,87.49
2022-09-09T23:12:30.081Z,87.72
2022-09-09T23:15:03.399Z,87.65
2022-09-09T23:17:35.511Z,87.65
2022-09-09T23:20:10.409Z,87.75
2022-09-09T23:22:43.009Z,87.87
2022-09-09T23:25:14.869Z,87.78
2022-09-09T23:27:46.649Z,87.74
2022-09-09T23:30:18.559Z,87.75
2022-09-09T23:32:50.411Z,87.78
2022-09-09T23:35:22.761Z,87.86
2022-09-09T23:37:54.622Z,87.75
2022-09-09T23:40:26.903Z,87.72
2022-09-09T23:42:58.945Z,87.82
2022-09-09T23:45:32.074Z,87.90
2022-09-09T23:48:03.888Z,87.80
2022-09-09T23:50:35.769Z,87.91
2022-09-09T23:53:08.559Z,87.85
2022-09-09T23:55:40.439Z,88.14
2022-09-09T23:58:12.802Z,88.14
